Time;durP1;ratioP1;P1;durP2;ratioP2;P2;SDS_P1;SDS_P2;PMS_P1;PMS_P2;Temp;Humidity;BMP_temperature;BMP_pressure;BME280_temperature;BME280_humidity;BME280_pressure;Samples;Min_cycle;Max_cycle;Signal;HPM_P1;HPM_P2
2022/05/06 00:00:06;;;;;;;1.00;0.95;;;9.40;99.90;;;;;;5015457;28;20100;-69
2022/05/06 00:02:33;;;;;;;2.70;1.02;;;9.40;99.90;;;;;;5016318;28;20073;-67
2022/05/06 00:05:00;;;;;;;3.67;1.15;;;9.40;99.90;;;;;;5017625;28;20073;-67
2022/05/06 00:07:28;;;;;;;2.53;1.60;;;9.40;99.90;;;;;;5015883;28;20129;-67
2022/05/06 00:09:55;;;;;;;1.73;1.42;;;9.40;99.90;;;;;;5016242;28;20802;-67
2022/05/06 00:12:23;;;;;;;1.52;1.30;;;9.40;99.90;;;;;;5015609;28;20061;-67
2022/05/06 00:14:51;;;;;;;1.70;1.60;;;9.40;99.90;;;;;;5007280;28;20034;-68
2022/05/06 00:17:24;;;;;;;2.10;1.67;;;9.40;99.90;;;;;;5010386;28;20050;-68
2022/05/06 00:19:51;;;;;;;1.45;1.35;;;9.40;99.90;;;;;;5015753;28;20506;-68
2022/05/06 00:22:18;;;;;;;3.53;1.40;;;9.40;99.90;;;;;;5017091;28;20049;-68
2022/05/06 00:24:45;;;;;;;;;;;9.40;99.90;;;;;;5017280;28;20094;-68
2022/05/06 00:27:13;;;;;;;1.58;1.40;;;9.40;99.90;;;;;;5016069;28;20595;-68
2022/05/06 00:29:40;;;;;;;2.22;1.90;;;9.40;99.90;;;;;;5014415;28;20053;-68
2022/05/06 00:32:07;;;;;;;4.18;2.75;;;9.40;99.90;;;;;;5016916;28;20644;-68
2022/05/06 00:34:33;;;;;;;2.75;2.38;;;9.40;99.90;;;;;;5016474;28;20053;-66
2022/05/06 00:37:00;;;;;;;;;;;9.40;99.90;;;;;;4998580;28;20048;-68
2022/05/06 00:39:27;;;;;;;2.83;2.63;;;9.40;99.90;;;;;;5014980;28;20520;-68
2022/05/06 00:41:54;;;;;;;3.40;3.03;;;9.40;99.90;;;;;;5014343;28;20057;-68
2022/05/06 00:44:22;;;;;;;3.10;2.80;;;9.40;99.90;;;;;;5017005;28;20045;-67
2022/05/06 00:46:52;;;;;;;3.17;2.80;;;9.40;99.90;;;;;;5015362;28;20132;-68
2022/05/06 00:49:21;;;;;;;3.45;3.10;;;9.40;99.90;;;;;;5015047;28;20053;-68
2022/05/06 00:51:50;;;;;;;3.00;2.70;;;9.40;99.90;;;;;;5014216;28;20047;-67
2022/05/06 00:54:21;;;;;;;3.42;3.10;;;9.40;99.90;;;;;;5015271;28;20045;-68
2022/05/06 00:56:48;;;;;;;3.63;3.33;;;9.40;99.90;;;;;;5013927;28;20041;-68
2022/05/06 00:59:16;;;;;;;3.80;3.40;;;9.40;99.90;;;;;;5014618;28;20049;-67
2022/05/06 01:01:43;;;;;;;3.40;3.10;;;9.40;99.90;;;;;;5014378;28;20123;-68
2022/05/06 01:04:17;;;;;;;5.55;3.47;;;9.40;99.90;;;;;;5014114;28;20038;-66
2022/05/06 01:06:46;;;;;;;3.88;3.47;;;9.40;99.90;;;;;;5013691;28;20162;-67
2022/05/06 01:09:15;;;;;;;4.05;3.70;;;9.40;99.90;;;;;;5013766;28;20102;-67
2022/05/06 01:11:43;;;;;;;3.75;3.38;;;9.40;99.90;;;;;;5013867;28;20763;-67
2022/05/06 01:14:11;;;;;;;4.85;3.90;;;9.40;99.90;;;;;;5009734;28;20048;-67
2022/05/06 01:16:38;;;;;;;4.05;3.60;;;9.40;99.90;;;;;;4999107;28;20046;-68
2022/05/06 01:19:09;;;;;;;3.97;3.45;;;9.40;99.90;;;;;;4993061;28;20937;-68
2022/05/06 01:21:41;;;;;;;3.60;3.30;;;9.40;99.90;;;;;;4994423;28;20048;-67
2022/05/06 01:24:09;;;;;;;4.45;2.70;;;9.40;99.90;;;;;;4994627;28;20068;-68
2022/05/06 01:27:01;;;;;;;3.38;2.63;;;9.40;99.90;;;;;;4994774;28;20042;-68
2022/05/06 01:29:31;;;;;;;2.58;2.38;;;9.40;99.90;;;;;;4996078;28;20080;-68
2022/05/06 01:31:58;;;;;;;3.80;3.05;;;9.40;99.90;;;;;;4995536;28;20054;-67
2022/05/06 01:34:27;;;;;;;2.63;2.42;;;9.40;99.90;;;;;;4994586;28;20476;-68
2022/05/06 01:36:57;;;;;;;4.53;3.42;;;9.40;99.90;;;;;;4993111;28;20847;-67
2022/05/06 01:39:32;;;;;;;3.13;2.85;;;9.40;99.90;;;;;;4994276;28;20065;-68
2022/05/06 01:42:07;;;;;;;3.00;2.70;;;9.40;99.90;;;;;;4992894;28;20077;-68
2022/05/06 01:44:43;;;;;;;3.60;3.30;;;9.40;99.90;;;;;;4994258;28;20050;-66
2022/05/06 01:47:19;;;;;;;2.15;2.05;;;9.40;99.90;;;;;;4992928;28;20050;-68
2022/05/06 01:49:49;;;;;;;2.30;2.10;;;9.40;99.90;;;;;;4994206;28;20613;-67
2022/05/06 01:52:17;;;;;;;3.53;2.40;;;9.40;99.90;;;;;;4994527;28;20084;-68
2022/05/06 01:54:46;;;;;;;2.00;1.80;;;9.40;99.90;;;;;;4993717;28;20046;-67
2022/05/06 01:57:14;;;;;;;2.55;1.60;;;9.40;99.90;;;;;;4993087;28;20045;-67
2022/05/06 01:59:41;;;;;;;3.28;2.40;;;9.40;99.90;;;;;;4993175;28;20072;-67
2022/05/06 02:02:21;;;;;;;11.02;2.00;;;9.40;99.90;;;;;;4992894;28;20119;-67
2022/05/06 02:07:39;;;;;;;1.60;1.50;;;9.40;99.90;;;;;;4992695;28;20590;-68
2022/05/06 02:10:07;;;;;;;2.00;1.80;;;9.40;99.90;;;;;;4992878;28;20053;-67
2022/05/06 02:12:38;;;;;;;4.05;1.60;;;9.40;99.90;;;;;;4993412;28;20177;-67
2022/05/06 02:15:28;;;;;;;1.83;1.45;;;9.40;99.90;;;;;;5012673;28;20509;-67
2022/05/06 02:18:11;;;;;;;1.77;1.35;;;9.40;99.90;;;;;;5007392;28;20162;-66
2022/05/06 02:20:46;;;;;;;1.60;1.50;;;9.40;99.90;;;;;;4994628;28;20046;-67
2022/05/06 02:23:37;;;;;;;1.67;1.58;;;9.40;99.90;;;;;;4996729;28;20049;-66
2022/05/06 02:26:23;;;;;;;2.20;1.63;;;9.40;99.90;;;;;;4995145;28;20136;-67
2022/05/06 02:28:53;;;;;;;1.90;1.70;;;9.40;99.90;;;;;;4992367;28;20539;-67
2022/05/06 02:34:15;;;;;;;5.68;1.67;;;9.40;99.90;;;;;;4992894;28;20053;-68
2022/05/06 02:36:46;;;;;;;1.85;1.75;;;9.40;99.90;;;;;;4992220;28;20041;-67
2022/05/06 02:39:19;;;;;;;2.08;1.63;;;9.40;99.90;;;;;;4992953;28;20046;-67
2022/05/06 02:41:50;;;;;;;2.38;2.00;;;9.30;99.90;;;;;;5010855;28;20053;-67
2022/05/06 02:44:19;;;;;;;2.63;2.40;;;9.40;99.90;;;;;;5012862;28;20586;-67
2022/05/06 02:46:46;;;;;;;4.35;1.70;;;9.40;99.90;;;;;;5011768;28;21152;-67
2022/05/06 02:49:12;;;;;;;;;;;9.40;99.90;;;;;;5012879;28;20080;-67
2022/05/06 02:51:39;;;;;;;3.65;2.20;;;9.40;99.90;;;;;;5012532;28;20014;-67
2022/05/06 02:54:07;;;;;;;2.10;1.58;;;9.40;99.90;;;;;;5012414;28;20119;-67
2022/05/06 02:56:37;;;;;;;1.60;1.50;;;9.40;99.90;;;;;;5012123;28;20519;-67
2022/05/06 02:59:05;;;;;;;1.50;1.40;;;9.40;99.90;;;;;;5011764;28;20065;-67
2022/05/06 03:01:35;;;;;;;1.45;1.35;;;9.30;99.90;;;;;;5011651;28;20993;-68
2022/05/06 03:04:06;;;;;;;2.03;1.50;;;9.30;99.90;;;;;;5012256;28;20045;-68
2022/05/06 03:06:33;;;;;;;2.05;1.60;;;9.30;99.90;;;;;;5011528;28;20103;-67
2022/05/06 03:09:01;;;;;;;2.85;1.80;;;9.30;99.90;;;;;;5011438;28;20041;-67
2022/05/06 03:11:32;;;;;;;4.28;2.08;;;9.30;99.90;;;;;;5012694;28;20103;-68
2022/05/06 03:14:09;;;;;;;1.73;1.37;;;9.20;99.90;;;;;;5012677;28;20053;-67
2022/05/06 03:16:44;;;;;;;2.85;1.33;;;9.20;99.90;;;;;;5008409;28;20677;-67
2022/05/06 03:19:11;;;;;;;1.52;1.42;;;9.20;99.90;;;;;;5009430;28;20033;-67
2022/05/06 03:21:39;;;;;;;2.50;1.77;;;9.20;99.90;;;;;;5012750;28;20077;-68
2022/05/06 03:24:06;;;;;;;1.80;1.70;;;9.20;99.90;;;;;;5011954;28;20548;-68
2022/05/06 03:26:33;;;;;;;1.55;1.45;;;9.10;99.90;;;;;;5011988;28;20045;-67
2022/05/06 03:29:00;;;;;;;;;;;9.10;99.90;;;;;;5011624;28;20057;-68
2022/05/06 03:31:27;;;;;;;2.25;1.95;;;9.10;99.90;;;;;;5011918;28;20122;-68
2022/05/06 03:34:02;;;;;;;2.13;1.70;;;9.10;99.90;;;;;;5012171;28;20053;-68
2022/05/06 03:36:34;;;;;;;3.05;1.35;;;9.10;99.90;;;;;;5012165;28;20561;-67
2022/05/06 03:39:05;;;;;;;1.85;1.75;;;9.10;99.90;;;;;;5012187;28;20045;-68
2022/05/06 03:41:40;;;;;;;2.22;2.03;;;9.10;99.90;;;;;;5011600;28;20151;-68
2022/05/06 03:44:07;;;;;;;;;;;9.10;99.90;;;;;;4996716;28;20138;-68
2022/05/06 03:46:38;;;;;;;2.58;2.38;;;9.10;99.90;;;;;;4995845;28;20085;-67
2022/05/06 03:49:06;;;;;;;1.80;1.70;;;9.10;99.90;;;;;;5011575;28;20534;-68
2022/05/06 03:51:33;;;;;;;2.13;1.85;;;9.10;99.90;;;;;;5011527;28;20064;-68
2022/05/06 03:54:11;;;;;;;2.40;2.15;;;9.10;99.90;;;;;;5015502;28;20053;-68
2022/05/06 03:56:38;;;;;;;2.05;1.85;;;9.20;99.90;;;;;;5015752;28;20041;-68
2022/05/06 03:59:07;;;;;;;2.83;1.92;;;9.20;99.90;;;;;;5015287;28;20068;-68
2022/05/06 04:01:35;;;;;;;2.72;2.15;;;9.20;99.90;;;;;;5016654;28;20077;-68
2022/05/06 04:04:05;;;;;;;6.53;2.30;;;9.20;99.90;;;;;;5017102;28;20504;-68
2022/05/06 04:06:34;;;;;;;2.70;2.50;;;9.20;99.90;;;;;;5015523;28;20049;-68
2022/05/06 04:09:03;;;;;;;4.88;2.00;;;9.20;99.90;;;;;;5014704;28;20042;-68
2022/05/06 04:11:33;;;;;;;3.67;2.00;;;9.10;99.90;;;;;;5015839;28;20053;-68
2022/05/06 04:14:04;;;;;;;3.92;2.60;;;9.10;99.90;;;;;;4996473;28;20126;-68
2022/05/06 04:16:35;;;;;;;10.48;2.72;;;9.10;99.90;;;;;;5015676;28;20458;-68
2022/05/06 04:19:05;;;;;;;3.53;2.58;;;9.10;99.90;;;;;;5005050;28;20050;-68
2022/05/06 04:24:20;;;;;;;2.58;2.17;;;9.10;99.90;;;;;;4995788;28;20786;-68
2022/05/06 04:26:47;;;;;;;2.40;2.20;;;9.10;99.90;;;;;;4994554;28;20030;-68
2022/05/06 04:29:14;;;;;;;;;;;9.10;99.90;;;;;;4996204;28;20428;-68
2022/05/06 04:31:47;;;;;;;3.88;2.80;;;9.10;99.90;;;;;;4995440;28;19930;-68
2022/05/06 04:34:16;;;;;;;2.92;2.28;;;9.10;99.90;;;;;;4995374;28;20041;-68
2022/05/06 04:36:42;;;;;;;3.85;2.22;;;9.10;99.90;;;;;;4996396;28;20045;-69
2022/05/06 04:39:11;;;;;;;2.65;2.45;;;9.10;99.90;;;;;;4994619;28;20153;-68
2022/05/06 04:41:45;;;;;;;1.92;1.83;;;9.10;99.90;;;;;;5014112;28;20049;-68
2022/05/06 04:44:14;;;;;;;2.80;2.53;;;9.10;99.90;;;;;;5014848;28;20712;-67
2022/05/06 04:46:41;;;;;;;3.72;2.10;;;9.10;99.90;;;;;;5014727;28;20049;-69
2022/05/06 04:49:09;;;;;;;2.80;2.60;;;9.20;99.90;;;;;;5013663;28;20084;-68
2022/05/06 04:51:36;;;;;;;2.75;2.55;;;9.20;99.90;;;;;;5015227;28;20057;-68
2022/05/06 04:54:06;;;;;;;3.65;2.58;;;9.20;99.90;;;;;;5013962;28;20716;-69
2022/05/06 04:56:34;;;;;;;3.03;2.67;;;9.20;99.90;;;;;;5015024;28;20496;-69
2022/05/06 04:59:09;;;;;;;2.13;1.92;;;9.20;99.90;;;;;;5013330;28;20037;-56
2022/05/06 05:01:42;;;;;;;3.30;2.92;;;9.30;99.90;;;;;;5013854;28;20041;-57
2022/05/06 05:04:09;;;;;;;2.53;2.33;;;9.30;99.90;;;;;;5013307;28;20568;-55
2022/05/06 05:06:38;;;;;;;4.70;2.83;;;9.30;99.90;;;;;;5013917;28;20425;-58
2022/05/06 05:09:09;;;;;;;2.55;2.35;;;9.30;99.90;;;;;;5013250;28;20045;-58
2022/05/06 05:11:40;;;;;;;2.55;2.35;;;9.40;99.90;;;;;;5014031;28;20049;-57
2022/05/06 05:14:13;;;;;;;3.38;3.08;;;9.40;99.90;;;;;;5013891;28;20045;-56
2022/05/06 05:16:40;;;;;;;7.15;4.65;;;9.40;99.90;;;;;;5013102;28;20392;-58
2022/05/06 05:19:07;;;;;;;4.32;3.65;;;9.40;99.90;;;;;;5010491;28;20034;-57
2022/05/06 05:21:40;;;;;;;4.28;3.42;;;9.40;99.90;;;;;;5012600;28;20053;-57
2022/05/06 05:24:07;;;;;;;3.65;3.35;;;9.40;99.90;;;;;;4997241;28;20041;-58
2022/05/06 05:26:37;;;;;;;4.30;3.72;;;9.40;99.90;;;;;;5014014;28;20038;-57
2022/05/06 05:29:05;;;;;;;4.13;3.60;;;9.50;99.90;;;;;;5012913;28;20045;-55
2022/05/06 05:31:32;;;;;;;;;;;9.50;99.90;;;;;;5015799;28;20263;-57
2022/05/06 05:33:59;;;;;;;3.03;2.42;;;9.50;99.90;;;;;;5013157;28;19936;-50
2022/05/06 05:36:26;;;;;;;3.15;2.33;;;9.50;99.90;;;;;;5013500;28;20054;-53
2022/05/06 05:38:55;;;;;;;3.47;2.53;;;9.50;99.90;;;;;;5012085;28;20045;-54
2022/05/06 05:41:23;;;;;;;2.72;2.38;;;9.50;99.90;;;;;;4998808;28;20129;-53
2022/05/06 05:49:26;;;;;;;2.80;2.28;;;9.60;99.90;;;;;;5003639;28;20063;-55
2022/05/06 05:51:53;;;;;;;2.15;1.95;;;9.60;99.90;;;;;;4993950;28;20061;-53
2022/05/06 05:54:21;;;;;;;2.17;1.90;;;9.60;99.90;;;;;;4993587;28;20046;-54
2022/05/06 05:56:49;;;;;;;1.85;1.67;;;9.60;99.90;;;;;;4992987;28;20042;-53
2022/05/06 05:59:16;;;;;;;1.75;1.65;;;9.60;99.90;;;;;;4993866;28;20046;-53
2022/05/06 06:01:43;;;;;;;2.55;1.35;;;9.60;99.90;;;;;;4992843;28;20042;-54
2022/05/06 06:04:12;;;;;;;2.47;1.98;;;9.60;99.90;;;;;;4993378;28;21017;-53
2022/05/06 06:06:43;;;;;;;3.17;1.55;;;9.60;99.90;;;;;;4992237;28;20046;-53
2022/05/06 06:09:13;;;;;;;1.60;1.50;;;9.60;99.90;;;;;;4992586;28;20141;-61
2022/05/06 06:11:41;;;;;;;2.25;1.50;;;9.60;99.90;;;;;;4996719;28;20116;-56
2022/05/06 06:14:10;;;;;;;1.63;1.45;;;9.60;99.90;;;;;;5012044;28;20036;-57
2022/05/06 06:16:36;;;;;;;1.70;1.35;;;9.60;99.90;;;;;;5012225;28;20049;-58
2022/05/06 06:19:03;;;;;;;1.90;1.80;;;9.60;99.90;;;;;;5007851;28;20046;-55
2022/05/06 06:21:37;;;;;;;2.08;1.70;;;9.60;99.90;;;;;;4994054;28;20046;-55
2022/05/06 06:24:05;;;;;;;2.15;1.60;;;9.60;99.90;;;;;;4992927;28;20053;-56
2022/05/06 06:26:32;;;;;;;1.63;1.52;;;9.60;99.90;;;;;;4993135;28;20509;-56
2022/05/06 06:29:03;;;;;;;1.52;1.42;;;9.60;99.90;;;;;;4991794;28;20046;-56
2022/05/06 06:31:31;;;;;;;2.30;1.70;;;9.60;99.90;;;;;;4992664;28;20042;-55
2022/05/06 06:34:01;;;;;;;1.45;1.35;;;9.60;99.90;;;;;;4993218;28;20045;-56
2022/05/06 06:36:33;;;;;;;2.72;2.45;;;9.60;99.90;;;;;;4977018;28;20045;-54
2022/05/06 06:39:01;;;;;;;3.15;2.40;;;9.60;99.90;;;;;;4992045;28;20073;-56
2022/05/06 06:41:32;;;;;;;2.45;2.00;;;9.70;99.90;;;;;;4992354;28;20064;-53
2022/05/06 06:44:00;;;;;;;2.70;2.50;;;9.60;99.90;;;;;;4994310;28;20049;-57
2022/05/06 06:46:46;;;;;;;5.67;2.43;;;9.70;99.90;;;;;;4993368;28;20107;-60
2022/05/06 06:49:25;;;;;;;2.75;2.30;;;9.70;99.90;;;;;;4992955;28;20046;-56
2022/05/06 06:52:20;;;;;;;3.35;2.83;;;9.70;99.90;;;;;;4991941;28;20050;-55
2022/05/06 06:54:46;;;;;;;3.03;2.70;;;9.80;99.90;;;;;;4994623;28;20052;-56
2022/05/06 06:57:13;;;;;;;2.92;2.42;;;9.80;99.90;;;;;;4992914;28;20038;-55
2022/05/06 06:59:40;;;;;;;2.45;2.25;;;9.80;99.90;;;;;;4994111;28;20057;-53
2022/05/06 07:02:07;;;;;;;4.22;2.63;;;9.80;99.90;;;;;;4993728;28;20088;-55
2022/05/06 07:04:34;;;;;;;3.60;2.40;;;9.90;99.90;;;;;;4994205;28;20072;-55
2022/05/06 07:12:32;;;;;;;2.47;2.28;;;10.00;99.90;;;;;;5013743;28;20053;-56
2022/05/06 07:14:59;;;;;;;2.80;2.20;;;10.00;99.90;;;;;;5013115;28;20076;-54
2022/05/06 07:17:25;;;;;;;3.85;2.58;;;10.00;99.90;;;;;;5012519;28;20041;-58
2022/05/06 07:19:52;;;;;;;2.33;2.13;;;10.00;99.90;;;;;;5010767;28;20037;-55
2022/05/06 07:22:20;;;;;;;4.68;2.15;;;10.00;99.90;;;;;;5002032;28;20069;-56
2022/05/06 07:24:53;;;;;;;3.40;2.35;;;10.00;99.90;;;;;;4993674;28;20046;-56
2022/05/06 07:27:21;;;;;;;2.72;1.73;;;10.10;99.90;;;;;;4993935;28;20045;-56
2022/05/06 07:29:48;;;;;;;2.38;2.17;;;10.10;99.90;;;;;;4997713;28;20069;-56
2022/05/06 07:32:14;;;;;;;3.13;1.90;;;10.10;99.90;;;;;;4997693;28;20045;-55
2022/05/06 07:34:41;;;;;;;;;;;10.10;99.90;;;;;;5011701;28;20463;-56
2022/05/06 07:37:08;;;;;;;2.35;2.15;;;10.10;99.90;;;;;;5014991;28;20319;-54
2022/05/06 07:39:35;;;;;;;4.57;2.63;;;10.10;99.90;;;;;;5017618;28;20049;-57
2022/05/06 07:42:02;;;;;;;4.05;2.80;;;10.10;99.90;;;;;;5017102;28;20049;-57
2022/05/06 07:44:28;;;;;;;;;;;10.10;99.90;;;;;;5017626;28;20514;-58
2022/05/06 07:46:55;;;;;;;3.75;3.03;;;10.10;99.90;;;;;;5016897;28;19932;-58
2022/05/06 07:49:23;;;;;;;3.35;2.95;;;10.10;99.90;;;;;;5017417;28;20128;-62
2022/05/06 07:51:50;;;;;;;4.10;3.03;;;10.10;99.90;;;;;;5017160;28;20045;-59
2022/05/06 07:54:17;;;;;;;3.42;2.75;;;10.10;99.90;;;;;;5016778;28;20061;-53
2022/05/06 07:56:44;;;;;;;;;;;10.20;99.90;;;;;;5017292;28;20091;-53
2022/05/06 07:59:11;;;;;;;3.92;3.17;;;10.20;99.90;;;;;;5016360;28;20399;-58
2022/05/06 08:04:34;;;;;;;36.47;4.90;;;10.30;99.90;;;;;;5014965;28;20111;-58
2022/05/06 08:07:02;;;;;;;14.73;5.13;;;10.30;99.90;;;;;;5015907;28;20049;-61
2022/05/06 08:09:29;;;;;;;38.88;7.65;;;10.30;99.90;;;;;;5016745;28;20107;-57
2022/05/06 08:11:56;;;;;;;15.95;4.78;;;10.30;99.90;;;;;;5014857;28;20137;-54
2022/05/06 08:14:23;;;;;;;10.77;4.15;;;10.40;99.90;;;;;;5016682;28;20087;-56
2022/05/06 08:16:50;;;;;;;;;;;10.50;99.90;;;;;;5016060;28;20060;-54
2022/05/06 08:19:18;;;;;;;11.82;3.97;;;10.50;99.90;;;;;;5015430;28;20018;-54
2022/05/06 08:21:50;;;;;;;4.93;3.92;;;10.60;99.90;;;;;;5009838;28;20209;-58
2022/05/06 08:24:17;;;;;;;4.57;3.90;;;10.70;99.90;;;;;;5014274;28;20057;-57
2022/05/06 08:26:44;;;;;;;4.35;3.95;;;10.80;99.90;;;;;;5015752;28;20464;-55
2022/05/06 08:29:12;;;;;;;5.47;4.50;;;10.80;99.90;;;;;;5004289;28;20053;-54
2022/05/06 08:31:39;;;;;;;5.63;4.30;;;10.90;99.90;;;;;;4997101;28;20239;-53
2022/05/06 08:34:08;;;;;;;4.47;4.07;;;10.90;99.90;;;;;;5012945;28;20538;-57
2022/05/06 08:36:37;;;;;;;4.88;3.88;;;11.00;99.90;;;;;;5014822;28;20049;-57
2022/05/06 08:39:05;;;;;;;4.55;4.15;;;11.00;99.90;;;;;;5015121;28;20088;-59
2022/05/06 08:41:34;;;;;;;3.92;3.53;;;11.00;99.90;;;;;;5016903;28;20682;-53
2022/05/06 08:52:36;;;;;;;5.53;3.60;;;11.00;99.90;;;;;;5017042;28;20076;-52
2022/05/06 08:55:05;;;;;;;4.13;3.20;;;11.00;99.90;;;;;;5014771;28;20563;-50
2022/05/06 08:57:32;;;;;;;4.13;3.72;;;11.00;99.90;;;;;;5013990;28;20112;-53
2022/05/06 08:59:59;;;;;;;3.75;3.42;;;11.00;99.90;;;;;;5016139;28;20049;-53
2022/05/06 09:02:27;;;;;;;3.78;3.47;;;11.00;99.90;;;;;;5014554;28;20042;-54
2022/05/06 09:04:54;;;;;;;;;;;11.00;99.90;;;;;;5017085;28;20315;-56
2022/05/06 09:07:24;;;;;;;3.75;3.40;;;11.00;99.90;;;;;;5015515;28;19928;-54
2022/05/06 09:10:11;;;;;;;5.95;3.50;;;11.00;99.90;;;;;;5016789;28;20661;-53
2022/05/06 09:12:42;;;;;;;3.72;3.33;;;11.00;99.90;;;;;;5015413;28;20080;-52
2022/05/06 09:17:57;;;;;;;2.75;2.55;;;11.10;99.90;;;;;;5014719;28;20516;-53
2022/05/06 09:20:25;;;;;;;3.70;3.40;;;11.10;99.90;;;;;;5015911;28;20057;-55
2022/05/06 09:22:53;;;;;;;3.90;3.50;;;11.20;99.90;;;;;;5013310;28;20041;-53
2022/05/06 09:25:36;;;;;;;4.13;3.67;;;11.20;99.90;;;;;;5014883;28;20041;-53
2022/05/06 09:28:04;;;;;;;4.47;4.07;;;11.20;99.90;;;;;;5014383;28;20091;-54
2022/05/06 09:30:32;;;;;;;4.13;3.72;;;11.30;99.90;;;;;;5014813;28;20041;-53
2022/05/06 09:32:59;;;;;;;5.05;4.55;;;11.30;99.90;;;;;;5015293;28;20038;-54
2022/05/06 09:35:27;;;;;;;5.30;4.80;;;11.40;99.90;;;;;;5014568;28;20042;-53
2022/05/06 09:37:54;;;;;;;5.00;4.45;;;11.50;99.90;;;;;;5014021;28;20038;-54
2022/05/06 09:40:27;;;;;;;;;;;11.60;99.90;;;;;;5015788;28;20061;-52
2022/05/06 09:42:55;;;;;;;5.28;4.60;;;11.60;99.90;;;;;;4997890;28;19979;-57
2022/05/06 09:45:42;;;;;;;6.50;5.90;;;11.80;99.90;;;;;;5015705;28;20050;-55
2022/05/06 09:48:10;;;;;;;6.55;4.78;;;11.90;99.90;;;;;;5014638;28;20037;-52
2022/05/06 09:50:42;;;;;;;7.38;6.57;;;12.00;99.90;;;;;;5014208;28;20038;-53
2022/05/06 09:53:17;;;;;;;6.93;5.80;;;12.10;99.90;;;;;;5015164;28;20061;-58
2022/05/06 09:55:46;;;;;;;5.45;4.95;;;12.30;99.90;;;;;;5015266;28;20080;-54
2022/05/06 09:58:14;;;;;;;6.85;5.57;;;12.40;99.90;;;;;;5013629;28;20041;-55
2022/05/06 10:00:42;;;;;;;6.05;5.05;;;12.50;99.90;;;;;;5014951;28;20037;-56
2022/05/06 10:03:09;;;;;;;7.03;4.50;;;12.50;99.90;;;;;;5014544;28;20526;-57
2022/05/06 10:05:37;;;;;;;4.65;4.25;;;12.60;99.90;;;;;;5015286;28;20037;-54
2022/05/06 10:08:17;;;;;;;4.30;3.97;;;12.60;99.90;;;;;;5012393;28;20073;-56
2022/05/06 10:10:57;;;;;;;4.95;4.45;;;12.70;99.90;;;;;;5014736;28;20041;-55
2022/05/06 10:13:27;;;;;;;5.80;5.20;;;12.70;99.90;;;;;;5012901;28;20444;-57
2022/05/06 10:15:54;;;;;;;4.57;4.18;;;12.80;99.90;;;;;;5013592;28;20037;-57
2022/05/06 10:18:36;;;;;;;3.78;3.45;;;12.80;99.90;;;;;;5012938;28;20463;-57
2022/05/06 10:21:08;;;;;;;4.07;3.67;;;12.80;99.90;;;;;;5014702;28;20052;-55
2022/05/06 10:23:48;;;;;;;4.28;3.63;;;12.80;99.90;;;;;;5014362;28;20053;-56
2022/05/06 10:26:33;;;;;;;3.83;3.22;;;12.90;99.90;;;;;;5013221;28;20053;-56
2022/05/06 10:34:54;;;;;;;4.68;4.28;;;12.80;99.90;;;;;;5014953;28;20626;-55
2022/05/06 10:37:22;;;;;;;;;;;12.80;99.90;;;;;;5013557;28;20057;-56
2022/05/06 10:39:49;;;;;;;4.35;3.95;;;12.70;99.90;;;;;;5014729;28;19987;-56
2022/05/06 10:42:17;;;;;;;4.45;4.05;;;12.60;99.90;;;;;;5014191;28;20214;-56
2022/05/06 10:44:48;;;;;;;6.68;5.93;;;12.50;99.90;;;;;;5014934;28;20095;-56
2022/05/06 10:47:15;;;;;;;7.53;6.65;;;12.40;99.90;;;;;;5012123;28;20107;-57
2022/05/06 10:49:46;;;;;;;;;;;12.40;99.90;;;;;;5014625;28;20500;-55
2022/05/06 10:52:16;;;;;;;8.30;6.90;;;12.40;99.90;;;;;;5014549;28;19932;-54
2022/05/06 10:54:48;;;;;;;6.55;5.85;;;12.40;99.90;;;;;;5012166;28;20044;-53
2022/05/06 10:57:20;;;;;;;8.45;6.50;;;12.50;99.90;;;;;;5012587;28;20042;-54
2022/05/06 11:00:02;;;;;;;5.25;4.72;;;12.50;99.90;;;;;;5013549;28;20069;-57
2022/05/06 11:02:31;;;;;;;4.68;4.10;;;12.50;99.90;;;;;;5014065;28;20069;-56
2022/05/06 11:05:01;;;;;;;5.38;4.88;;;12.50;99.90;;;;;;5014578;28;20045;-56
2022/05/06 11:07:30;;;;;;;5.78;5.15;;;12.50;99.90;;;;;;5013409;28;20358;-57
2022/05/06 11:09:57;;;;;;;4.72;4.32;;;12.40;99.90;;;;;;5013924;28;20123;-56
2022/05/06 11:12:42;;;;;;;4.40;4.03;;;12.40;99.90;;;;;;5014550;28;20115;-57
2022/05/06 11:15:23;;;;;;;9.70;5.78;;;12.40;99.90;;;;;;5013063;28;20049;-55
2022/05/06 11:17:54;;;;;;;7.15;6.00;;;12.40;99.90;;;;;;5009641;28;20041;-53
2022/05/06 11:20:36;;;;;;;8.00;7.00;;;12.30;99.90;;;;;;5012966;28;20059;-53
2022/05/06 11:23:08;;;;;;;8.43;6.95;;;12.30;99.90;;;;;;5013501;28;20068;-54
2022/05/06 11:25:37;;;;;;;9.68;8.68;;;12.30;99.90;;;;;;5011947;28;20841;-52
2022/05/06 11:28:24;;;;;;;14.27;9.85;;;12.20;99.90;;;;;;5011818;28;20103;-54
2022/05/06 11:30:52;;;;;;;16.42;12.20;;;12.20;99.90;;;;;;5014332;28;20045;-53
2022/05/06 11:33:24;;;;;;;12.88;10.50;;;12.30;99.90;;;;;;5013089;28;20062;-54
2022/05/06 11:36:01;;;;;;;14.65;10.63;;;12.40;99.90;;;;;;5013066;28;20041;-53
2022/05/06 11:38:36;;;;;;;13.63;10.95;;;12.40;99.90;;;;;;5012954;28;20781;-53
2022/05/06 11:41:06;;;;;;;14.95;12.45;;;12.40;99.90;;;;;;5012590;28;20064;-52
2022/05/06 11:43:33;;;;;;;19.92;14.07;;;12.40;99.90;;;;;;5013576;28;20056;-53
2022/05/06 11:48:47;;;;;;;20.88;16.67;;;12.40;99.90;;;;;;5012685;28;20778;-55
2022/05/06 11:51:16;;;;;;;23.73;19.63;;;12.50;99.90;;;;;;5013705;28;20057;-52
2022/05/06 11:53:43;;;;;;;24.98;20.27;;;12.50;99.90;;;;;;5013812;28;20137;-53
2022/05/06 11:56:12;;;;;;;27.42;20.88;;;12.60;99.90;;;;;;5012770;28;20076;-54
2022/05/06 11:58:39;;;;;;;32.65;23.33;;;12.60;99.90;;;;;;5013431;28;20065;-52
2022/05/06 12:01:06;;;;;;;32.10;23.55;;;12.70;99.90;;;;;;5013370;28;20056;-53
2022/05/06 12:03:34;;;;;;;32.40;24.42;;;12.70;99.90;;;;;;5013128;28;20040;-53
2022/05/06 12:06:27;;;;;;;35.42;25.73;;;12.70;99.90;;;;;;5014003;28;20052;-52
2022/05/06 12:09:16;;;;;;;35.92;27.95;;;12.70;99.90;;;;;;5013237;28;20119;-54
2022/05/06 12:11:45;;;;;;;37.97;29.70;;;12.60;99.90;;;;;;5013500;28;20034;-53
2022/05/06 12:14:19;;;;;;;36.72;29.73;;;12.60;99.90;;;;;;5012133;28;20056;-58
2022/05/06 12:16:58;;;;;;;37.20;29.83;;;12.50;99.90;;;;;;5015620;28;20044;-59
2022/05/06 12:19:33;;;;;;;39.63;30.83;;;12.50;99.90;;;;;;5015627;28;20604;-59
2022/05/06 12:22:05;;;;;;;38.75;31.35;;;12.50;99.90;;;;;;5017230;28;20626;-58
2022/05/06 12:24:50;;;;;;;43.92;34.88;;;12.40;99.90;;;;;;5016516;28;20045;-59
2022/05/06 12:27:28;;;;;;;44.08;34.33;;;12.50;99.90;;;;;;5013048;28;20123;-57
2022/05/06 12:29:57;;;;;;;42.55;33.58;;;12.60;99.90;;;;;;5016831;28;20045;-59
2022/05/06 12:32:24;;;;;;;50.55;37.95;;;12.70;99.90;;;;;;5015124;28;20418;-57
2022/05/06 12:35:04;;;;;;;;;;;12.70;99.90;;;;;;5017511;28;20041;-59
2022/05/06 12:37:32;;;;;;;50.63;36.95;;;12.70;99.90;;;;;;5016212;28;20424;-61
2022/05/06 12:39:59;;;;;;;;;;;12.70;99.90;;;;;;5017171;28;20049;-58
2022/05/06 12:42:26;;;;;;;43.13;33.95;;;12.80;99.90;;;;;;5017290;28;19925;-58
2022/05/06 12:45:14;;;;;;;43.72;33.42;;;12.80;99.90;;;;;;5016592;28;20160;-58
2022/05/06 12:50:27;;;;;;;45.20;36.13;;;12.80;99.90;;;;;;5016916;28;20041;-59
2022/05/06 12:52:53;;;;;;;;;;;12.80;99.90;;;;;;5016856;28;20244;-59
2022/05/06 12:55:21;;;;;;;41.15;33.42;;;12.80;99.90;;;;;;5014679;28;19998;-58
2022/05/06 12:57:48;;;;;;;40.83;32.58;;;12.80;99.90;;;;;;5015533;28;20140;-57
2022/05/06 13:00:15;;;;;;;43.42;31.80;;;12.80;99.90;;;;;;5016743;28;20049;-57
2022/05/06 13:02:42;;;;;;;44.63;35.67;;;12.70;99.90;;;;;;5015512;28;20049;-56
2022/05/06 13:05:09;;;;;;;50.85;37.05;;;12.70;99.90;;;;;;5016433;28;20057;-60
2022/05/06 13:07:36;;;;;;;48.40;35.38;;;12.60;99.90;;;;;;5015090;28;20069;-60
2022/05/06 13:10:03;;;;;;;45.00;34.30;;;12.60;99.90;;;;;;5015685;28;20038;-56
2022/05/06 13:12:30;;;;;;;51.08;37.35;;;12.50;99.90;;;;;;5016192;28;20621;-59
2022/05/06 13:14:57;;;;;;;58.58;35.20;;;12.50;99.90;;;;;;5015248;28;20099;-61
2022/05/06 13:17:23;;;;;;;;;;;12.40;99.90;;;;;;5015608;28;20156;-57
2022/05/06 13:19:51;;;;;;;47.10;32.45;;;12.40;99.90;;;;;;5014162;28;19982;-57
2022/05/06 13:22:19;;;;;;;45.33;33.90;;;12.30;99.90;;;;;;5015620;28;20056;-56
2022/05/06 13:24:46;;;;;;;44.78;35.08;;;12.20;99.90;;;;;;5015600;28;20832;-56
2022/05/06 13:27:13;;;;;;;42.33;32.75;;;12.20;99.90;;;;;;5012929;28;20041;-56
2022/05/06 13:29:41;;;;;;;41.83;35.25;;;12.10;99.90;;;;;;5013676;28;20053;-56
2022/05/06 13:32:08;;;;;;;44.10;36.03;;;12.10;99.90;;;;;;5014875;28;20120;-57
2022/05/06 13:34:34;;;;;;;;;;;12.00;99.90;;;;;;5016152;28;20038;-59
2022/05/06 13:37:03;;;;;;;42.75;32.72;;;12.00;99.90;;;;;;5014077;28;19936;-57
2022/05/06 13:39:30;;;;;;;44.03;34.70;;;12.00;99.90;;;;;;5013830;28;20049;-59
2022/05/06 13:41:57;;;;;;;45.42;33.78;;;12.00;99.90;;;;;;5013633;28;20049;-58
2022/05/06 13:44:24;;;;;;;44.70;33.65;;;12.00;99.90;;;;;;5015502;28;20695;-59
2022/05/06 13:46:52;;;;;;;;;;;12.10;99.90;;;;;;5013562;28;20495;-59
2022/05/06 13:49:19;;;;;;;40.88;30.00;;;12.10;99.90;;;;;;5013813;28;19960;-59
2022/05/06 13:51:46;;;;;;;;;;;12.10;99.90;;;;;;5014760;28;20582;-57
2022/05/06 13:54:13;;;;;;;36.28;28.67;;;12.20;99.90;;;;;;5014702;28;20789;-57